sensor_id;sensor_type;location;lat;lon;timestamp;pressure;altitude;pressure_sealevel;temperature;humidity
43430;BME280;29028;43.234;27.896;2022-08-21T04:01:34;99396.03;;;23.24;100.00
43430;BME280;29028;43.234;27.896;2022-08-21T04:01:59;99403.34;;;23.34;100.00
43430;BME280;29028;43.234;27.896;2022-08-21T04:02:20;99399.00;;;23.28;100.00
43430;BME280;29028;43.234;27.896;2022-08-21T04:02:42;99409.34;;;23.36;100.00
43430;BME280;29028;43.234;27.896;2022-08-21T04:03:04;99402.81;;;23.32;100.00
43430;BME280;29028;43.234;27.896;2022-08-21T04:03:27;99409.06;;;23.37;100.00
43430;BME280;29028;43.234;27.896;2022-08-21T04:03:48;99404.91;;;23.40;100.00
43430;BME280;29028;43.234;27.896;2022-08-21T04:04:08;99408.00;;;23.33;100.00
43430;BME280;29028;43.234;27.896;2022-08-21T04:04:29;99413.50;;;23.33;100.00
43430;BME280;29028;43.234;27.896;2022-08-21T04:04:50;99404.16;;;23.34;100.00
43430;BME280;29028;43.234;27.896;2022-08-21T04:05:12;99406.31;;;23.37;100.00
43430;BME280;29028;43.234;27.896;2022-08-21T04:05:34;99403.09;;;23.30;100.00
43430;BME280;29028;43.234;27.896;2022-08-21T04:05:56;99405.25;;;23.33;100.00
43430;BME280;29028;43.234;27.896;2022-08-21T04:06:17;99416.28;;;23.28;100.00
43430;BME280;29028;43.234;27.896;2022-08-21T04:06:39;99423.50;;;23.24;100.00
43430;BME280;29028;43.234;27.896;2022-08-21T04:07:00;99407.88;;;23.20;100.00
43430;BME280;29028;43.234;27.896;2022-08-21T04:07:21;99402.09;;;23.16;100.00
43430;BME280;29028;43.234;27.896;2022-08-21T04:07:42;99369.47;;;22.86;100.00
43430;BME280;29028;43.234;27.896;2022-08-21T04:08:05;99411.22;;;23.12;100.00
43430;BME280;29028;43.234;27.896;2022-08-21T04:08:27;99411.00;;;23.08;100.00
43430;BME280;29028;43.234;27.896;2022-08-21T04:08:48;99406.03;;;23.10;100.00
43430;BME280;29028;43.234;27.896;2022-08-21T04:09:09;99403.88;;;23.07;100.00
43430;BME280;29028;43.234;27.896;2022-08-21T04:09:31;99414.75;;;23.17;100.00
43430;BME280;29028;43.234;27.896;2022-08-21T04:09:51;99415.31;;;23.19;100.00
43430;BME280;29028;43.234;27.896;2022-08-21T04:10:12;99417.47;;;23.22;100.00
43430;BME280;29028;43.234;27.896;2022-08-21T04:10:35;99411.47;;;23.15;100.00
43430;BME280;29028;43.234;27.896;2022-08-21T04:10:57;99407.34;;;23.18;100.00
43430;BME280;29028;43.234;27.896;2022-08-21T04:11:20;99418.59;;;23.16;100.00
43430;BME280;29028;43.234;27.896;2022-08-21T04:11:41;99413.09;;;23.16;100.00
43430;BME280;29028;43.234;27.896;2022-08-21T04:12:02;99407.91;;;23.15;100.00
43430;BME280;29028;43.234;27.896;2022-08-21T04:12:23;99415.03;;;23.21;100.00
43430;BME280;29028;43.234;27.896;2022-08-21T04:12:44;99418.56;;;23.21;100.00
43430;BME280;29028;43.234;27.896;2022-08-21T04:13:07;99415.31;;;23.19;100.00
43430;BME280;29028;43.234;27.896;2022-08-21T04:13:28;99414.19;;;23.20;100.00
43430;BME280;29028;43.234;27.896;2022-08-21T04:13:49;99420.19;;;23.22;100.00
43430;BME280;29028;43.234;27.896;2022-08-21T04:14:11;99420.16;;;23.27;100.00
43430;BME280;29028;43.234;27.896;2022-08-21T04:14:32;99413.31;;;23.25;100.00
43430;BME280;29028;43.234;27.896;2022-08-21T04:14:53;99412.16;;;23.31;100.00
43430;BME280;29028;43.234;27.896;2022-08-21T04:15:13;99417.13;;;23.29;100.00
43430;BME280;29028;43.234;27.896;2022-08-21T04:15:35;99419.31;;;23.32;100.00
43430;BME280;29028;43.234;27.896;2022-08-21T04:15:57;99419.34;;;23.27;100.00
43430;BME280;29028;43.234;27.896;2022-08-21T04:16:18;99416.06;;;23.25;100.00
43430;BME280;29028;43.234;27.896;2022-08-21T04:16:41;99426.00;;;23.21;100.00
43430;BME280;29028;43.234;27.896;2022-08-21T04:17:03;99412.00;;;23.17;100.00
43430;BME280;29028;43.234;27.896;2022-08-21T04:17:23;99408.69;;;23.20;100.00
43430;BME280;29028;43.234;27.896;2022-08-21T04:17:45;99412.78;;;23.23;100.00
43430;BME280;29028;43.234;27.896;2022-08-21T04:18:06;99419.13;;;23.23;100.00
43430;BME280;29028;43.234;27.896;2022-08-21T04:18:28;99419.88;;;23.29;100.00
43430;BME280;29028;43.234;27.896;2022-08-21T04:18:49;99412.41;;;23.34;100.00
43430;BME280;29028;43.234;27.896;2022-08-21T04:19:12;99419.25;;;23.37;100.00
43430;BME280;29028;43.234;27.896;2022-08-21T04:19:33;99415.97;;;23.35;100.00
43430;BME280;29028;43.234;27.896;2022-08-21T04:19:54;99418.13;;;23.38;100.00
43430;BME280;29028;43.234;27.896;2022-08-21T04:20:16;99413.16;;;23.40;100.00
43430;BME280;29028;43.234;27.896;2022-08-21T04:20:38;99417.91;;;23.34;100.00
43430;BME280;29028;43.234;27.896;2022-08-21T04:21:01;99420.09;;;23.32;100.00
43430;BME280;29028;43.234;27.896;2022-08-21T04:21:23;99412.75;;;23.28;100.00
43430;BME280;29028;43.234;27.896;2022-08-21T04:21:44;99417.34;;;23.32;100.00
43430;BME280;29028;43.234;27.896;2022-08-21T04:22:05;99413.22;;;23.35;100.00
43430;BME280;29028;43.234;27.896;2022-08-21T04:22:26;99414.03;;;23.35;100.00
43430;BME280;29028;43.234;27.896;2022-08-21T04:22:47;99412.34;;;23.39;100.00
43430;BME280;29028;43.234;27.896;2022-08-21T04:23:08;99415.38;;;23.38;100.00
43430;BME280;29028;43.234;27.896;2022-08-21T04:23:30;99405.75;;;23.40;100.00
43430;BME280;29028;43.234;27.896;2022-08-21T04:23:53;99413.34;;;23.48;100.00
43430;BME280;29028;43.234;27.896;2022-08-21T04:24:15;99409.47;;;23.49;100.00
43430;BME280;29028;43.234;27.896;2022-08-21T04:24:36;99406.72;;;23.49;100.00
43430;BME280;29028;43.234;27.896;2022-08-21T04:25:19;99412.88;;;23.65;100.00
43430;BME280;29028;43.234;27.896;2022-08-21T04:25:43;99413.44;;;23.62;100.00
43430;BME280;29028;43.234;27.896;2022-08-21T04:26:04;99406.31;;;23.61;100.00
43430;BME280;29028;43.234;27.896;2022-08-21T04:26:25;99411.97;;;23.69;100.00
43430;BME280;29028;43.234;27.896;2022-08-21T04:26:46;99405.06;;;23.72;100.00
43430;BME280;29028;43.234;27.896;2022-08-21T04:27:08;99401.22;;;23.73;100.00
43430;BME280;29028;43.234;27.896;2022-08-21T04:27:29;99407.69;;;23.82;100.00
43430;BME280;29028;43.234;27.896;2022-08-21T04:27:49;99399.75;;;23.80;100.00
43430;BME280;29028;43.234;27.896;2022-08-21T04:28:11;99404.94;;;23.82;100.00
43430;BME280;29028;43.234;27.896;2022-08-21T04:28:34;99400.91;;;23.74;100.00
43430;BME280;29028;43.234;27.896;2022-08-21T04:28:54;99403.91;;;23.78;100.00
43430;BME280;29028;43.234;27.896;2022-08-21T04:29:17;99408.44;;;23.87;100.00
43430;BME280;29028;43.234;27.896;2022-08-21T04:29:39;99394.75;;;23.82;100.00
43430;BME280;29028;43.234;27.896;2022-08-21T04:30:02;99405.16;;;23.90;100.00
43430;BME280;29028;43.234;27.896;2022-08-21T04:30:23;99413.69;;;23.89;100.00
43430;BME280;29028;43.234;27.896;2022-08-21T04:30:44;99405.19;;;23.85;100.00
43430;BME280;29028;43.234;27.896;2022-08-21T04:31:05;99398.53;;;23.91;100.00
43430;BME280;29028;43.234;27.896;2022-08-21T04:31:27;99408.34;;;23.97;100.00
43430;BME280;29028;43.234;27.896;2022-08-21T04:31:50;99407.44;;;24.02;100.00
43430;BME280;29028;43.234;27.896;2022-08-21T04:32:12;99407.97;;;24.04;100.00
43430;BME280;29028;43.234;27.896;2022-08-21T04:32:33;99406.03;;;24.04;100.00
43430;BME280;29028;43.234;27.896;2022-08-21T04:32:56;99409.84;;;24.08;100.00
43430;BME280;29028;43.234;27.896;2022-08-21T04:33:20;99408.44;;;24.11;100.00
43430;BME280;29028;43.234;27.896;2022-08-21T04:33:41;99402.28;;;24.19;100.00
43430;BME280;29028;43.234;27.896;2022-08-21T04:34:02;99397.97;;;24.13;100.00
43430;BME280;29028;43.234;27.896;2022-08-21T04:34:23;99411.31;;;24.19;100.00
43430;BME280;29028;43.234;27.896;2022-08-21T04:34:45;99402.03;;;24.15;100.00
43430;BME280;29028;43.234;27.896;2022-08-21T04:35:08;99410.22;;;24.20;100.00
43430;BME280;29028;43.234;27.896;2022-08-21T04:35:30;99411.94;;;24.16;100.00
43430;BME280;29028;43.234;27.896;2022-08-21T04:35:51;99410.53;;;24.19;100.00
43430;BME280;29028;43.234;27.896;2022-08-21T04:36:13;99407.16;;;24.22;100.00
43430;BME280;29028;43.234;27.896;2022-08-21T04:36:34;99405.25;;;24.22;100.00
43430;BME280;29028;43.234;27.896;2022-08-21T04:36:54;99406.38;;;24.21;100.00
43430;BME280;29028;43.234;27.896;2022-08-21T04:37:15;99412.16;;;24.20;100.00
43430;BME280;29028;43.234;27.896;2022-08-21T04:37:36;99399.97;;;24.26;100.00
43430;BME280;29028;43.234;27.896;2022-08-21T04:37:58;99415.13;;;24.23;100.00
43430;BME280;29028;43.234;27.896;2022-08-21T04:38:20;99405.41;;;24.31;100.00
43430;BME280;29028;43.234;27.896;2022-08-21T04:38:41;99409.56;;;24.28;100.00
43430;BME280;29028;43.234;27.896;2022-08-21T04:39:03;99405.09;;;24.32;100.00
43430;BME280;29028;43.234;27.896;2022-08-21T04:39:24;99408.56;;;24.38;100.00
43430;BME280;29028;43.234;27.896;2022-08-21T04:39:45;99408.56;;;24.38;100.00
43430;BME280;29028;43.234;27.896;2022-08-21T04:40:08;99410.22;;;24.39;100.00
43430;BME280;29028;43.234;27.896;2022-08-21T04:40:29;99407.16;;;24.40;100.00
43430;BME280;29028;43.234;27.896;2022-08-21T04:40:54;99403.38;;;24.36;100.00
43430;BME280;29028;43.234;27.896;2022-08-21T04:41:20;99409.63;;;24.42;100.00
43430;BME280;29028;43.234;27.896;2022-08-21T04:41:41;99407.91;;;24.46;100.00
43430;BME280;29028;43.234;27.896;2022-08-21T04:42:02;99408.06;;;24.54;100.00
43430;BME280;29028;43.234;27.896;2022-08-21T04:42:23;99408.34;;;24.53;100.00
43430;BME280;29028;43.234;27.896;2022-08-21T04:42:47;99403.97;;;24.52;100.00
43430;BME280;29028;43.234;27.896;2022-08-21T04:43:10;99410.28;;;24.52;100.00
43430;BME280;29028;43.234;27.896;2022-08-21T04:43:31;99410.19;;;24.57;100.00
43430;BME280;29028;43.234;27.896;2022-08-21T04:43:52;99403.34;;;24.55;100.00
43430;BME280;29028;43.234;27.896;2022-08-21T04:44:14;99405.06;;;24.69;100.00
43430;BME280;29028;43.234;27.896;2022-08-21T04:44:36;99405.69;;;24.66;100.00
43430;BME280;29028;43.234;27.896;2022-08-21T04:44:57;99412.31;;;24.65;100.00
43430;BME280;29028;43.234;27.896;2022-08-21T04:45:20;99407.31;;;24.67;100.00
43430;BME280;29028;43.234;27.896;2022-08-21T04:45:44;99397.44;;;24.66;100.00
43430;BME280;29028;43.234;27.896;2022-08-21T04:46:07;99405.19;;;24.78;100.00
43430;BME280;29028;43.234;27.896;2022-08-21T04:46:28;99406.63;;;24.75;100.00
43430;BME280;29028;43.234;27.896;2022-08-21T04:46:50;99408.78;;;24.78;100.00
43430;BME280;29028;43.234;27.896;2022-08-21T04:47:11;99407.16;;;24.77;100.00
43430;BME280;29028;43.234;27.896;2022-08-21T04:47:33;99407.75;;;24.74;100.00
43430;BME280;29028;43.234;27.896;2022-08-21T04:47:56;99405.53;;;24.76;100.00
43430;BME280;29028;43.234;27.896;2022-08-21T04:48:20;99402.44;;;24.78;100.00
43430;BME280;29028;43.234;27.896;2022-08-21T04:48:44;99406.53;;;24.80;100.00
43430;BME280;29028;43.234;27.896;2022-08-21T04:49:05;99397.59;;;24.88;100.00
43430;BME280;29028;43.234;27.896;2022-08-21T04:49:26;99404.53;;;24.86;100.00
43430;BME280;29028;43.234;27.896;2022-08-21T04:49:47;99404.22;;;24.87;100.00
43430;BME280;29028;43.234;27.896;2022-08-21T04:50:09;99401.06;;;24.94;100.00
43430;BME280;29028;43.234;27.896;2022-08-21T04:50:43;99392.78;;;24.94;100.00
43430;BME280;29028;43.234;27.896;2022-08-21T04:51:08;99406.47;;;24.99;100.00
43430;BME280;29028;43.234;27.896;2022-08-21T04:51:33;99403.13;;;25.02;100.00
43430;BME280;29028;43.234;27.896;2022-08-21T04:51:55;99403.13;;;25.02;100.00
43430;BME280;29028;43.234;27.896;2022-08-21T04:52:19;99384.53;;;24.94;100.00
43430;BME280;29028;43.234;27.896;2022-08-21T04:52:41;99396.28;;;24.99;100.00
43430;BME280;29028;43.234;27.896;2022-08-21T04:53:04;99399.16;;;25.08;100.00
43430;BME280;29028;43.234;27.896;2022-08-21T04:53:31;99390.41;;;25.06;100.00
43430;BME280;29028;43.234;27.896;2022-08-21T04:53:56;99389.88;;;25.04;100.00
43430;BME280;29028;43.234;27.896;2022-08-21T04:54:19;99392.53;;;25.09;100.00
43430;BME280;29028;43.234;27.896;2022-08-21T04:54:42;99399.88;;;25.13;100.00
43430;BME280;29028;43.234;27.896;2022-08-21T04:55:06;99404.59;;;25.13;100.00
43430;BME280;29028;43.234;27.896;2022-08-21T04:55:28;99397.94;;;25.14;100.00
43430;BME280;29028;43.234;27.896;2022-08-21T04:55:49;99396.63;;;25.11;100.00
43430;BME280;29028;43.234;27.896;2022-08-21T04:56:15;99399.50;;;25.20;100.00
43430;BME280;29028;43.234;27.896;2022-08-21T04:56:41;99389.09;;;25.17;100.00
43430;BME280;29028;43.234;27.896;2022-08-21T04:57:06;99395.69;;;25.16;100.00
43430;BME280;29028;43.234;27.896;2022-08-21T04:57:30;99396.72;;;25.20;100.00
43430;BME280;29028;43.234;27.896;2022-08-21T04:57:51;99387.47;;;25.29;100.00
43430;BME280;29028;43.234;27.896;2022-08-21T04:58:16;99388.91;;;25.27;100.00
43430;BME280;29028;43.234;27.896;2022-08-21T04:58:39;99391.66;;;25.27;99.51
43430;BME280;29028;43.234;27.896;2022-08-21T04:59:06;99389.13;;;25.30;99.86
43430;BME280;29028;43.234;27.896;2022-08-21T04:59:35;99396.47;;;25.35;99.49
43430;BME280;29028;43.234;27.896;2022-08-21T04:59:58;99388.91;;;25.27;99.10
43430;BME280;29028;43.234;27.896;2022-08-21T05:00:19;99390.31;;;25.24;99.56
43430;BME280;29028;43.234;27.896;2022-08-21T05:00:43;99393.63;;;25.26;99.47
43430;BME280;29028;43.234;27.896;2022-08-21T05:01:07;99384.44;;;25.31;99.80
43430;BME280;29028;43.234;27.896;2022-08-21T05:01:32;99389.13;;;25.30;99.61
43430;BME280;29028;43.234;27.896;2022-08-21T05:01:55;99381.06;;;25.34;99.72
43430;BME280;29028;43.234;27.896;2022-08-21T05:02:18;99380.78;;;25.35;99.42
43430;BME280;29028;43.234;27.896;2022-08-21T05:02:39;99384.84;;;25.38;98.95
43430;BME280;29028;43.234;27.896;2022-08-21T05:03:01;99390.34;;;25.38;98.96
43430;BME280;29028;43.234;27.896;2022-08-21T05:03:24;99381.19;;;25.42;98.72
43430;BME280;29028;43.234;27.896;2022-08-21T05:03:47;99377.88;;;25.40;98.24
43430;BME280;29028;43.234;27.896;2022-08-21T05:04:11;99385.34;;;25.40;98.22
43430;BME280;29028;43.234;27.896;2022-08-21T05:04:35;99374.63;;;25.38;97.88
43430;BME280;29028;43.234;27.896;2022-08-21T05:04:58;99387.50;;;25.43;97.56
43430;BME280;29028;43.234;27.896;2022-08-21T05:05:20;99388.31;;;25.43;98.07
43430;BME280;29028;43.234;27.896;2022-08-21T05:05:41;99381.97;;;25.43;97.94
43430;BME280;29028;43.234;27.896;2022-08-21T05:06:05;99387.00;;;25.41;97.54
43430;BME280;29028;43.234;27.896;2022-08-21T05:06:28;99380.34;;;25.42;97.71
43430;BME280;29028;43.234;27.896;2022-08-21T05:06:54;99383.84;;;25.47;97.19
43430;BME280;29028;43.234;27.896;2022-08-21T05:07:21;99378.81;;;25.49;96.99
43430;BME280;29028;43.234;27.896;2022-08-21T05:07:44;99383.50;;;25.49;97.19
43430;BME280;29028;43.234;27.896;2022-08-21T05:08:07;99378.31;;;25.47;97.15
43430;BME280;29028;43.234;27.896;2022-08-21T05:08:29;99383.63;;;25.57;97.18
43430;BME280;29028;43.234;27.896;2022-08-21T05:08:53;99384.63;;;25.61;96.92
43430;BME280;29028;43.234;27.896;2022-08-21T05:09:17;99387.09;;;25.63;96.44
43430;BME280;29028;43.234;27.896;2022-08-21T05:09:38;99388.72;;;25.64;96.39
43430;BME280;29028;43.234;27.896;2022-08-21T05:10:00;99387.91;;;25.63;95.95
43430;BME280;29028;43.234;27.896;2022-08-21T05:10:21;99380.44;;;25.64;95.97
43430;BME280;29028;43.234;27.896;2022-08-21T05:10:43;99382.91;;;25.65;95.65
43430;BME280;29028;43.234;27.896;2022-08-21T05:11:04;99372.91;;;25.56;95.91
43430;BME280;29028;43.234;27.896;2022-08-21T05:11:27;99379.03;;;25.53;95.69
43430;BME280;29028;43.234;27.896;2022-08-21T05:11:48;99384.22;;;25.54;95.90
43430;BME280;29028;43.234;27.896;2022-08-21T05:12:09;99375.75;;;25.51;96.12
43430;BME280;29028;43.234;27.896;2022-08-21T05:12:31;99371.06;;;25.51;95.87
43430;BME280;29028;43.234;27.896;2022-08-21T05:12:54;99376.56;;;25.51;95.89
43430;BME280;29028;43.234;27.896;2022-08-21T05:13:15;99380.75;;;25.49;96.11
43430;BME280;29028;43.234;27.896;2022-08-21T05:13:36;99372.47;;;25.49;96.43
43430;BME280;29028;43.234;27.896;2022-08-21T05:13:57;99373.94;;;25.46;96.41
43430;BME280;29028;43.234;27.896;2022-08-21T05:14:19;99364.63;;;25.42;96.17
43430;BME280;29028;43.234;27.896;2022-08-21T05:14:41;99379.84;;;25.53;96.58
43430;BME280;29028;43.234;27.896;2022-08-21T05:15:03;99377.00;;;25.58;96.60
43430;BME280;29028;43.234;27.896;2022-08-21T05:15:24;99376.78;;;25.55;96.61
43430;BME280;29028;43.234;27.896;2022-08-21T05:15:45;99373.41;;;25.58;96.10
43430;BME280;29028;43.234;27.896;2022-08-21T05:16:08;99374.03;;;25.68;95.99
43430;BME280;29028;43.234;27.896;2022-08-21T05:16:29;99375.13;;;25.67;95.58
43430;BME280;29028;43.234;27.896;2022-08-21T05:16:50;99374.41;;;25.75;94.98
43430;BME280;29028;43.234;27.896;2022-08-21T05:17:12;99362.84;;;25.73;94.90
43430;BME280;29028;43.234;27.896;2022-08-21T05:17:34;99366.75;;;25.72;94.53
43430;BME280;29028;43.234;27.896;2022-08-21T05:17:55;99372.88;;;25.83;94.43
43430;BME280;29028;43.234;27.896;2022-08-21T05:18:16;99372.06;;;25.82;94.51
43430;BME280;29028;43.234;27.896;2022-08-21T05:18:37;99376.44;;;25.83;94.34
43430;BME280;29028;43.234;27.896;2022-08-21T05:18:59;99372.34;;;25.81;93.49
43430;BME280;29028;43.234;27.896;2022-08-21T05:19:20;99373.69;;;25.83;93.25
43430;BME280;29028;43.234;27.896;2022-08-21T05:19:41;99375.13;;;25.81;93.15
43430;BME280;29028;43.234;27.896;2022-08-21T05:20:03;99375.19;;;25.89;93.18
43430;BME280;29028;43.234;27.896;2022-08-21T05:20:24;99383.41;;;25.94;92.78
43430;BME280;29028;43.234;27.896;2022-08-21T05:20:46;99370.63;;;25.85;92.72
43430;BME280;29028;43.234;27.896;2022-08-21T05:21:09;99375.75;;;25.91;92.69
43430;BME280;29028;43.234;27.896;2022-08-21T05:21:30;99379.19;;;25.97;92.73
43430;BME280;29028;43.234;27.896;2022-08-21T05:21:51;99374.22;;;25.99;92.77
43430;BME280;29028;43.234;27.896;2022-08-21T05:22:19;99368.34;;;26.00;92.50
43430;BME280;29028;43.234;27.896;2022-08-21T05:22:41;99371.47;;;25.99;92.38
43430;BME280;29028;43.234;27.896;2022-08-21T05:23:07;99368.34;;;26.00;91.89
43430;BME280;29028;43.234;27.896;2022-08-21T05:23:28;99376.03;;;26.03;91.95
43430;BME280;29028;43.234;27.896;2022-08-21T05:23:50;99362.44;;;26.07;92.24
43430;BME280;29028;43.234;27.896;2022-08-21T05:24:11;99362.72;;;26.05;91.63
43430;BME280;29028;43.234;27.896;2022-08-21T05:24:32;99375.28;;;26.11;91.69
43430;BME280;29028;43.234;27.896;2022-08-21T05:24:53;99375.81;;;26.13;91.65
43430;BME280;29028;43.234;27.896;2022-08-21T05:25:15;99372.22;;;26.13;91.68
43430;BME280;29028;43.234;27.896;2022-08-21T05:25:37;99374.47;;;26.11;91.46
43430;BME280;29028;43.234;27.896;2022-08-21T05:25:58;99368.84;;;26.16;91.13
43430;BME280;29028;43.234;27.896;2022-08-21T05:26:19;99376.50;;;26.19;90.90
43430;BME280;29028;43.234;27.896;2022-08-21T05:26:40;99372.00;;;26.23;90.79
43430;BME280;29028;43.234;27.896;2022-08-21T05:27:02;99372.38;;;26.30;90.42
43430;BME280;29028;43.234;27.896;2022-08-21T05:27:23;99379.22;;;26.32;90.21
43430;BME280;29028;43.234;27.896;2022-08-21T05:27:44;99369.94;;;26.28;90.01
43430;BME280;29028;43.234;27.896;2022-08-21T05:28:06;99374.22;;;26.34;90.46
43430;BME280;29028;43.234;27.896;2022-08-21T05:28:28;99367.94;;;26.42;90.08
43430;BME280;29028;43.234;27.896;2022-08-21T05:28:48;99372.00;;;26.45;89.42
43430;BME280;29028;43.234;27.896;2022-08-21T05:29:09;99371.88;;;26.50;89.67
43430;BME280;29028;43.234;27.896;2022-08-21T05:29:31;99371.88;;;26.50;89.22
43430;BME280;29028;43.234;27.896;2022-08-21T05:30:09;99375.97;;;26.52;88.89
43430;BME280;29028;43.234;27.896;2022-08-21T05:30:30;99370.94;;;26.54;89.03
43430;BME280;29028;43.234;27.896;2022-08-21T05:30:51;99367.69;;;26.52;88.76
43430;BME280;29028;43.234;27.896;2022-08-21T05:31:12;99375.88;;;26.57;88.74
43430;BME280;29028;43.234;27.896;2022-08-21T05:31:34;99378.94;;;26.56;88.61
43430;BME280;29028;43.234;27.896;2022-08-21T05:31:55;99367.19;;;26.50;88.54
43430;BME280;29028;43.234;27.896;2022-08-21T05:32:17;99373.31;;;26.61;89.00
43430;BME280;29028;43.234;27.896;2022-08-21T05:32:38;99375.44;;;26.64;88.72
43430;BME280;29028;43.234;27.896;2022-08-21T05:33:02;99367.53;;;26.71;88.44
43430;BME280;29028;43.234;27.896;2022-08-21T05:33:23;99384.09;;;26.71;88.08
43430;BME280;29028;43.234;27.896;2022-08-21T05:33:44;99371.78;;;26.77;88.19
43430;BME280;29028;43.234;27.896;2022-08-21T05:34:05;99376.94;;;26.92;87.18
43430;BME280;29028;43.234;27.896;2022-08-21T05:34:26;99367.81;;;26.91;87.16
43430;BME280;29028;43.234;27.896;2022-08-21T05:34:48;99369.56;;;26.87;86.97
43430;BME280;29028;43.234;27.896;2022-08-21T05:35:09;99362.50;;;26.73;87.88
43430;BME280;29028;43.234;27.896;2022-08-21T05:35:32;99365.72;;;26.66;88.67
43430;BME280;29028;43.234;27.896;2022-08-21T05:35:54;99372.34;;;26.65;89.17
43430;BME280;29028;43.234;27.896;2022-08-21T05:36:17;99367.69;;;26.52;89.45
43430;BME280;29028;43.234;27.896;2022-08-21T05:36:38;99373.44;;;26.56;89.86
43430;BME280;29028;43.234;27.896;2022-08-21T05:36:59;99376.38;;;26.59;90.22
43430;BME280;29028;43.234;27.896;2022-08-21T05:37:20;99370.34;;;26.57;90.50
43430;BME280;29028;43.234;27.896;2022-08-21T05:37:42;99373.59;;;26.59;90.27
43430;BME280;29028;43.234;27.896;2022-08-21T05:38:03;99365.03;;;26.61;90.36
43430;BME280;29028;43.234;27.896;2022-08-21T05:38:25;99373.00;;;26.62;90.42
43430;BME280;29028;43.234;27.896;2022-08-21T05:38:47;99367.97;;;26.64;89.78
43430;BME280;29028;43.234;27.896;2022-08-21T05:39:09;99371.03;;;26.63;89.83
43430;BME280;29028;43.234;27.896;2022-08-21T05:39:30;99365.69;;;26.44;90.48
43430;BME280;29028;43.234;27.896;2022-08-21T05:39:51;99372.50;;;26.47;90.54
43430;BME280;29028;43.234;27.896;2022-08-21T05:40:12;99369.06;;;26.41;90.64
43430;BME280;29028;43.234;27.896;2022-08-21T05:40:34;99364.75;;;26.49;90.23
43430;BME280;29028;43.234;27.896;2022-08-21T05:40:55;99358.19;;;26.45;90.49
43430;BME280;29028;43.234;27.896;2022-08-21T05:41:16;99364.84;;;26.44;89.89
43430;BME280;29028;43.234;27.896;2022-08-21T05:41:37;99365.34;;;26.24;90.71
43430;BME280;29028;43.234;27.896;2022-08-21T05:41:59;99370.13;;;25.96;91.74
43430;BME280;29028;43.234;27.896;2022-08-21T05:42:20;99378.50;;;25.78;92.99
43430;BME280;29028;43.234;27.896;2022-08-21T05:42:41;99374.03;;;25.55;93.71
43430;BME280;29028;43.234;27.896;2022-08-21T05:43:03;99371.88;;;25.52;94.74
43430;BME280;29028;43.234;27.896;2022-08-21T05:43:24;99376.16;;;25.58;94.43
43430;BME280;29028;43.234;27.896;2022-08-21T05:43:45;99374.94;;;25.50;94.97
43430;BME280;29028;43.234;27.896;2022-08-21T05:44:05;99374.03;;;25.41;95.38
43430;BME280;29028;43.234;27.896;2022-08-21T05:44:26;99370.94;;;25.43;95.81
43430;BME280;29028;43.234;27.896;2022-08-21T05:44:48;99377.78;;;25.45;96.04
43430;BME280;29028;43.234;27.896;2022-08-21T05:45:09;99367.59;;;25.59;95.42
43430;BME280;29028;43.234;27.896;2022-08-21T05:45:32;99361.75;;;25.74;94.66
43430;BME280;29028;43.234;27.896;2022-08-21T05:45:53;99371.94;;;25.87;93.99
43430;BME280;29028;43.234;27.896;2022-08-21T05:46:15;99376.56;;;25.92;93.73
43430;BME280;29028;43.234;27.896;2022-08-21T05:46:36;99373.69;;;25.97;93.19
43430;BME280;29028;43.234;27.896;2022-08-21T05:47:03;99362.84;;;26.00;92.80
43430;BME280;29028;43.234;27.896;2022-08-21T05:47:25;99365.16;;;26.20;92.00
43430;BME280;29028;43.234;27.896;2022-08-21T05:47:47;99369.94;;;26.28;91.16
43430;BME280;29028;43.234;27.896;2022-08-21T05:48:09;99371.56;;;26.29;90.94
43430;BME280;29028;43.234;27.896;2022-08-21T05:48:30;99372.69;;;26.28;90.37
43430;BME280;29028;43.234;27.896;2022-08-21T05:48:51;99378.47;;;26.40;90.56
43430;BME280;29028;43.234;27.896;2022-08-21T05:49:13;99377.72;;;26.48;89.62
43430;BME280;29028;43.234;27.896;2022-08-21T05:49:34;99368.00;;;26.51;89.21
43430;BME280;29028;43.234;27.896;2022-08-21T05:49:55;99364.94;;;26.52;88.55
43430;BME280;29028;43.234;27.896;2022-08-21T05:50:16;99364.94;;;26.52;88.41
43430;BME280;29028;43.234;27.896;2022-08-21T05:50:38;99370.94;;;26.54;89.08
43430;BME280;29028;43.234;27.896;2022-08-21T05:51:05;99369.31;;;26.53;89.03
43430;BME280;29028;43.234;27.896;2022-08-21T05:51:26;99367.84;;;26.34;89.15
43430;BME280;29028;43.234;27.896;2022-08-21T05:51:47;99366.41;;;26.36;89.31
43430;BME280;29028;43.234;27.896;2022-08-21T05:52:08;99371.75;;;26.33;89.23
43430;BME280;29028;43.234;27.896;2022-08-21T05:52:29;99365.16;;;26.42;89.39
43430;BME280;29028;43.234;27.896;2022-08-21T05:52:50;99363.59;;;26.50;88.68
43430;BME280;29028;43.234;27.896;2022-08-21T05:53:12;99372.63;;;26.55;88.99
43430;BME280;29028;43.234;27.896;2022-08-21T05:53:34;99365.50;;;26.63;88.84
43430;BME280;29028;43.234;27.896;2022-08-21T05:53:55;99370.59;;;26.69;88.25
43430;BME280;29028;43.234;27.896;2022-08-21T05:54:16;99366.28;;;26.77;87.87
43430;BME280;29028;43.234;27.896;2022-08-21T05:54:37;99373.78;;;26.85;87.72
43430;BME280;29028;43.234;27.896;2022-08-21T05:54:59;99373.47;;;26.86;87.46
43430;BME280;29028;43.234;27.896;2022-08-21T05:55:20;99364.59;;;26.98;87.03
43430;BME280;29028;43.234;27.896;2022-08-21T05:55:41;99368.81;;;26.95;86.69
43430;BME280;29028;43.234;27.896;2022-08-21T05:56:02;99370.63;;;27.00;86.70
43430;BME280;29028;43.234;27.896;2022-08-21T05:56:25;99372.91;;;26.98;86.46